Swartz Creek, MI (48473)

12:28 AM EST on February 24, 2017 (GMT -0500)
Gaines TWP | | Change Station

Elev 807 ft 42.90 °N, 83.82 °W | Updated 5 seconds ago

Rain
Rain
38.3 °F
Feels Like 32 °F
N
9.6
Wind Variable Wind from ENE
Gusts 12.3 mph

Today
High -- | Low -- °F
--% Chance of Precip.
Yesterday
High -- | Low -- °F
Precip. -- in
Pressure 29.85 in
Visibility 10.0 miles
Clouds Overcast 6500 ft
Windchill 32 °F
Dew Point 28 °F
Humidity 65%
Rainfall 0.00 in
Snow Depth Not available.
7:18 AM 6:18 PM
Waning Crescent, 6% visible
METAR KFNT 240453Z AUTO 07012KT 10SM -RA OVC065 03/01 A2985 RMK AO2 RAB0359 SLPNO P0001 T00330011 401500033
Pressure 29.85 in
Visibility 10.0 miles
Clouds Overcast 6500 ft
Windchill 32 °F
Dew Point 28 °F
Humidity 65%
Rainfall 0.00 in
Snow Depth Not available.
7:18 AM 6:18 PM
Waning Crescent, 6% visible
METAR KFNT 240453Z AUTO 07012KT 10SM -RA OVC065 03/01 A2985 RMK AO2 RAB0359 SLPNO P0001 T00330011 401500033

Get Your Daily Forecast Email!

Thanks for signing up!

Be on the lookout for a verification email in your inbox.

You'll start receiving the daily forecast at 8 AM.

×

10-Day Weather Forecast

Almanac

Astronomy

Feb. 24, 2017 Rise Set
Actual Time
Civil Twilight
Nautical Twilight
Astronomical Twilight
Moon
Length of Visible Light
Length of Day
Tomorrow will be .
, % of the Moon is Illuminated

Today's Extremes

State Highs State Lows

Community

WunderPhotos

Upload Photos

1,962,540 photos uploaded!

WunderBlog® & News

Nearby

Air Quality

  Air Quality AQ Index Pollutant
Not available.

Snow Depth

Station Depth Elevation

Earthquake Activity

City Distance Mag. Time & Date
Minimum magnitude displayed is 2.5.

Coastal Water Temperatures

Place Temperature

Stations

Nearby Weather Stations

Station Location Temp. Windchill Dew Point Humidity Wind Precip. Elev Updated Type
                   

Watches & Warnings

There are currently no watches in effect.